Terminal Aerodrome Forecast
Issued by NWS Brownsville, TX

Home | Current Version | Previous Version | Text Only | Print | Product List | Glossary On
Versions: 1 2 3 4 5 6 7 8 9 10 11 12 13 14 15 16
655
FTUS44 KBRO 260906 AAB
TAFBRO
TAF AMD
KBRO 260906Z 2609/2706 11006KT P6SM BKN090
     FM261500 16015G21KT P6SM OVC040
     FM262100 16015KT P6SM OVC025=

USA.gov is the U.S. government's official web portal to all federal, state and local government web resources and services.